createdAt,value
2022-08-17T00:00:52.268Z,26.91
2022-08-17T00:01:52.043Z,26.89
2022-08-17T00:02:50.856Z,26.89
2022-08-17T00:03:50.653Z,26.89
2022-08-17T00:04:50.843Z,26.89
2022-08-17T00:05:50.654Z,26.88
2022-08-17T00:06:50.615Z,26.89
2022-08-17T00:07:50.841Z,26.88
2022-08-17T00:08:50.622Z,26.89
2022-08-17T00:09:50.610Z,26.89
2022-08-17T00:10:50.581Z,26.88
2022-08-17T00:12:42.971Z,26.88
2022-08-17T00:12:51.608Z,26.89
2022-08-17T00:13:50.531Z,26.88
2022-08-17T00:14:51.842Z,26.87
2022-08-17T00:15:50.553Z,26.88
2022-08-17T00:16:56.335Z,26.88
2022-08-17T00:17:51.526Z,26.87
2022-08-17T00:19:01.957Z,26.88
2022-08-17T00:19:52.223Z,26.88
2022-08-17T00:20:50.516Z,26.87
2022-08-17T00:22:29.431Z,26.88
2022-08-17T00:22:51.635Z,26.87
2022-08-17T00:23:50.914Z,26.89
2022-08-17T00:24:50.445Z,26.87
2022-08-17T00:25:50.472Z,26.88
2022-08-17T00:26:50.414Z,26.88
2022-08-17T00:27:50.422Z,26.88
2022-08-17T00:28:50.403Z,26.87
2022-08-17T00:29:50.392Z,26.88
2022-08-17T00:30:53.156Z,26.89
2022-08-17T00:31:50.424Z,26.88
2022-08-17T00:33:10.958Z,26.88
2022-08-17T00:33:51.357Z,26.88
2022-08-17T00:34:50.935Z,26.88
2022-08-17T00:35:50.336Z,26.88
2022-08-17T00:36:50.346Z,26.87
2022-08-17T00:37:50.315Z,26.88
2022-08-17T00:38:50.345Z,26.87
2022-08-17T00:39:50.459Z,26.88
2022-08-17T00:40:50.296Z,26.87
2022-08-17T00:41:50.255Z,26.88
2022-08-17T00:42:50.441Z,26.87
2022-08-17T00:43:50.245Z,26.85
2022-08-17T00:44:50.238Z,26.87
2022-08-17T00:45:50.259Z,26.87
2022-08-17T00:46:50.245Z,26.87
2022-08-17T00:47:50.225Z,26.85
2022-08-17T00:48:50.196Z,26.87
2022-08-17T00:49:50.187Z,26.85
2022-08-17T00:50:50.218Z,26.84
2022-08-17T00:51:50.177Z,26.84
2022-08-17T00:52:51.326Z,26.85
2022-08-17T00:53:50.405Z,26.87
2022-08-17T00:54:50.138Z,26.85
2022-08-17T00:55:50.228Z,26.87
2022-08-17T00:56:50.138Z,26.84
2022-08-17T00:57:53.473Z,26.85
2022-08-17T00:58:51.129Z,26.87
2022-08-17T00:59:51.121Z,26.85
2022-08-17T01:00:51.114Z,26.85
2022-08-17T01:01:50.092Z,26.85
2022-08-17T01:02:50.049Z,26.84
2022-08-17T01:03:50.068Z,26.85
2022-08-17T01:04:50.060Z,26.85
2022-08-17T01:05:50.038Z,26.84
2022-08-17T01:06:50.019Z,26.85
2022-08-17T01:07:50.009Z,26.84
2022-08-17T01:08:50.319Z,26.84
2022-08-17T01:09:50.989Z,26.85
2022-08-17T01:10:59.259Z,26.84
2022-08-17T01:11:50.970Z,26.84
2022-08-17T01:12:50.131Z,26.84
2022-08-17T01:13:49.949Z,26.82
2022-08-17T01:14:49.949Z,26.84
2022-08-17T01:15:49.934Z,26.82
2022-08-17T01:16:49.919Z,26.84
2022-08-17T01:17:49.918Z,26.84
2022-08-17T01:18:49.918Z,26.84
2022-08-17T01:19:49.908Z,26.82
2022-08-17T01:20:49.868Z,26.84
2022-08-17T01:21:49.892Z,26.82
2022-08-17T01:22:50.028Z,26.84
2022-08-17T01:23:49.850Z,26.82
2022-08-17T01:24:50.001Z,26.84
2022-08-17T01:25:49.864Z,26.82
2022-08-17T01:26:49.831Z,26.81
2022-08-17T01:27:49.833Z,26.82
2022-08-17T01:28:54.667Z,26.82
2022-08-17T01:29:50.849Z,26.82
2022-08-17T01:30:58.878Z,26.84
2022-08-17T01:31:50.771Z,26.82
2022-08-17T01:32:49.887Z,26.81
2022-08-17T01:33:49.748Z,26.81
2022-08-17T01:34:50.421Z,26.81
2022-08-17T01:35:49.740Z,26.81
2022-08-17T01:36:50.394Z,26.81
2022-08-17T01:37:49.747Z,26.81
2022-08-17T01:38:49.691Z,26.81
2022-08-17T01:39:49.792Z,26.81
2022-08-17T01:40:49.680Z,26.81
2022-08-17T01:41:50.844Z,26.81
2022-08-17T01:42:49.825Z,26.80
2022-08-17T01:43:49.641Z,26.81
2022-08-17T01:44:49.685Z,26.81
2022-08-17T01:45:50.293Z,26.82
2022-08-17T01:46:50.633Z,26.82
2022-08-17T01:47:49.632Z,26.81
2022-08-17T01:48:49.594Z,26.81
2022-08-17T01:49:49.641Z,26.80
2022-08-17T01:50:49.592Z,26.81
2022-08-17T01:51:49.584Z,26.77
2022-08-17T01:52:49.770Z,26.80
2022-08-17T01:53:49.564Z,26.81
2022-08-17T01:54:49.543Z,26.80
2022-08-17T01:55:49.540Z,26.80
2022-08-17T01:56:49.512Z,26.80
2022-08-17T01:57:49.553Z,26.80
2022-08-17T01:58:49.507Z,26.77
2022-08-17T01:59:49.494Z,26.81
2022-08-17T02:00:59.908Z,26.80
2022-08-17T02:01:50.641Z,26.80
2022-08-17T02:02:49.575Z,26.80
2022-08-17T02:03:53.176Z,26.80
2022-08-17T02:04:50.449Z,26.81
2022-08-17T02:05:49.856Z,26.77
2022-08-17T02:06:53.745Z,26.80
2022-08-17T02:08:00.522Z,26.81
2022-08-17T02:09:01.712Z,26.77
2022-08-17T02:09:52.719Z,26.80
2022-08-17T02:10:49.418Z,26.80
2022-08-17T02:11:49.412Z,26.77
2022-08-17T02:12:49.524Z,26.77
2022-08-17T02:13:49.373Z,26.77
2022-08-17T02:14:50.339Z,26.80
2022-08-17T02:15:49.404Z,26.77
2022-08-17T02:16:49.326Z,26.76
2022-08-17T02:17:49.326Z,26.76
2022-08-17T02:18:50.306Z,26.80
2022-08-17T02:19:49.297Z,26.77
2022-08-17T02:20:49.287Z,26.77
2022-08-17T02:21:49.288Z,26.77
2022-08-17T02:22:49.443Z,26.77
2022-08-17T02:23:49.298Z,26.80
2022-08-17T02:24:59.870Z,26.76
2022-08-17T02:25:50.259Z,26.75
2022-08-17T02:26:49.214Z,26.77
2022-08-17T02:27:49.215Z,26.76
2022-08-17T02:28:49.225Z,26.75
2022-08-17T02:29:49.215Z,26.76
2022-08-17T02:31:01.332Z,26.77
2022-08-17T02:31:50.196Z,26.77
2022-08-17T02:32:49.311Z,26.77
2022-08-17T02:34:00.579Z,26.77
2022-08-17T02:34:51.139Z,26.76
2022-08-17T02:35:49.138Z,26.76
2022-08-17T02:36:49.118Z,26.75
2022-08-17T02:37:49.106Z,26.76
2022-08-17T02:38:50.117Z,26.76
2022-08-17T02:39:49.131Z,26.76
2022-08-17T02:40:49.077Z,26.75
2022-08-17T02:41:50.040Z,26.75
2022-08-17T02:42:49.280Z,26.77
2022-08-17T02:43:49.069Z,26.75
2022-08-17T02:44:49.059Z,26.77
2022-08-17T02:45:49.052Z,26.75
2022-08-17T02:46:49.072Z,26.76
2022-08-17T02:47:49.010Z,26.76
2022-08-17T02:48:49.001Z,26.75
2022-08-17T02:49:54.499Z,26.75
2022-08-17T02:50:49.979Z,26.75
2022-08-17T02:51:49.021Z,26.75
2022-08-17T02:52:57.294Z,26.76
2022-08-17T02:53:49.939Z,26.75
2022-08-17T02:54:48.930Z,26.75
2022-08-17T02:55:48.932Z,26.75
2022-08-17T02:56:48.920Z,26.73
2022-08-17T02:57:48.947Z,26.75
2022-08-17T02:58:48.933Z,26.73
2022-08-17T02:59:49.196Z,26.75
2022-08-17T03:00:48.919Z,26.75
2022-08-17T03:01:49.063Z,26.75
2022-08-17T03:02:49.085Z,26.75
2022-08-17T03:03:48.852Z,26.75
2022-08-17T03:04:48.842Z,26.73
2022-08-17T03:05:48.840Z,26.73
2022-08-17T03:07:44.918Z,26.75
2022-08-17T03:08:44.877Z,26.73
2022-08-17T03:09:44.858Z,26.75
2022-08-17T03:10:44.839Z,26.73
2022-08-17T03:11:44.840Z,26.73
2022-08-17T03:12:44.839Z,26.73
2022-08-17T03:13:44.838Z,26.72
2022-08-17T03:14:44.801Z,26.72
2022-08-17T03:15:44.810Z,26.72
2022-08-17T03:16:44.814Z,26.73
2022-08-17T03:17:44.791Z,26.72
2022-08-17T03:18:44.782Z,26.70
2022-08-17T03:19:44.797Z,26.73
2022-08-17T03:20:44.803Z,26.73
2022-08-17T03:21:44.742Z,26.72
2022-08-17T03:22:53.416Z,26.72
2022-08-17T03:23:45.735Z,26.72
2022-08-17T03:24:44.732Z,26.73
2022-08-17T03:25:44.711Z,26.73
2022-08-17T03:26:44.888Z,26.72
2022-08-17T03:27:44.683Z,26.75
2022-08-17T03:28:44.693Z,26.72
2022-08-17T03:29:44.709Z,26.72
2022-08-17T03:30:44.664Z,26.73
2022-08-17T03:31:44.664Z,26.72
2022-08-17T03:32:44.661Z,26.70
2022-08-17T03:33:44.630Z,26.70
2022-08-17T03:34:44.643Z,26.72
2022-08-17T03:35:44.639Z,26.72
2022-08-17T03:36:44.628Z,26.72
2022-08-17T03:37:44.593Z,26.72
2022-08-17T03:38:44.605Z,26.72
2022-08-17T03:39:44.637Z,26.70
2022-08-17T03:40:56.648Z,26.70
2022-08-17T03:41:45.562Z,26.69
2022-08-17T03:42:44.546Z,26.72
2022-08-17T03:43:44.534Z,26.72
2022-08-17T03:44:44.535Z,26.70
2022-08-17T03:45:44.543Z,26.70
2022-08-17T03:46:44.580Z,26.69
2022-08-17T03:47:44.504Z,26.70
2022-08-17T03:48:44.482Z,26.70
2022-08-17T03:49:44.458Z,26.69
2022-08-17T03:50:44.406Z,26.70
2022-08-17T03:51:44.473Z,26.70
2022-08-17T03:52:44.453Z,26.70
2022-08-17T03:53:45.467Z,26.70
2022-08-17T03:54:44.481Z,26.70
2022-08-17T03:55:44.465Z,26.69
2022-08-17T03:56:44.364Z,26.69
2022-08-17T03:57:44.345Z,26.70
2022-08-17T03:58:44.342Z,26.72
2022-08-17T03:59:45.047Z,26.69
2022-08-17T04:00:44.296Z,26.69
2022-08-17T04:01:44.359Z,26.69
2022-08-17T04:02:44.349Z,26.67
2022-08-17T04:03:44.288Z,26.70
2022-08-17T04:04:44.256Z,26.69
2022-08-17T04:05:44.245Z,26.70
2022-08-17T04:06:44.281Z,26.72
2022-08-17T04:07:44.227Z,26.69
2022-08-17T04:08:44.245Z,26.67
2022-08-17T04:09:44.219Z,26.69
2022-08-17T04:10:44.928Z,26.69
2022-08-17T04:11:44.207Z,26.70
2022-08-17T04:12:44.196Z,26.69
2022-08-17T04:13:44.396Z,26.67
2022-08-17T04:14:51.842Z,26.70
2022-08-17T04:15:45.173Z,26.69
2022-08-17T04:16:44.178Z,26.69
2022-08-17T04:17:44.130Z,26.69
2022-08-17T04:18:44.148Z,26.69
2022-08-17T04:19:44.127Z,26.66
2022-08-17T04:20:44.116Z,26.69
2022-08-17T04:21:44.106Z,26.67
2022-08-17T04:22:44.066Z,26.69
2022-08-17T04:23:44.056Z,26.70
2022-08-17T04:24:44.056Z,26.69
2022-08-17T04:25:44.077Z,26.69
2022-08-17T04:26:52.893Z,26.69
2022-08-17T04:27:45.035Z,26.69
2022-08-17T04:28:44.028Z,26.70
2022-08-17T04:29:50.031Z,26.69
2022-08-17T04:30:45.007Z,26.70
2022-08-17T04:31:44.037Z,26.70
2022-08-17T04:33:05.406Z,26.69
2022-08-17T04:33:44.967Z,26.67
2022-08-17T04:34:43.999Z,26.69
2022-08-17T04:35:43.977Z,26.69
2022-08-17T04:36:50.358Z,26.69
2022-08-17T04:37:44.963Z,26.70
2022-08-17T04:38:43.928Z,26.69
2022-08-17T04:39:43.919Z,26.69
2022-08-17T04:40:43.909Z,26.69
2022-08-17T04:41:43.908Z,26.70
2022-08-17T04:42:43.867Z,26.70
2022-08-17T04:43:43.870Z,26.70
2022-08-17T04:44:43.891Z,26.70
2022-08-17T04:45:55.398Z,26.69
2022-08-17T04:46:44.851Z,26.72
2022-08-17T04:47:43.839Z,26.70
2022-08-17T04:48:43.824Z,26.69
2022-08-17T04:49:43.799Z,26.70
2022-08-17T04:50:43.802Z,26.70
2022-08-17T04:51:51.643Z,26.70
2022-08-17T04:52:44.781Z,26.72
2022-08-17T04:53:43.781Z,26.72
2022-08-17T04:54:43.765Z,26.72
2022-08-17T04:55:43.786Z,26.72
2022-08-17T04:56:43.769Z,26.72
2022-08-17T04:57:45.253Z,26.70
2022-08-17T04:58:43.714Z,26.69
2022-08-17T04:59:43.729Z,26.72
2022-08-17T05:00:43.711Z,26.73
2022-08-17T05:01:43.720Z,26.73
2022-08-17T05:02:50.109Z,26.72
2022-08-17T05:03:44.680Z,26.72
2022-08-17T05:04:43.640Z,26.73
2022-08-17T05:05:43.673Z,26.72
2022-08-17T05:06:43.680Z,26.73
2022-08-17T05:07:43.645Z,26.72
2022-08-17T05:08:45.347Z,26.73
2022-08-17T05:09:43.634Z,26.75
2022-08-17T05:10:45.331Z,26.75
2022-08-17T05:11:45.034Z,26.75
2022-08-17T05:12:43.602Z,26.73
2022-08-17T05:13:43.580Z,26.73
2022-08-17T05:14:43.647Z,26.75
2022-08-17T05:15:44.839Z,26.75
2022-08-17T05:16:43.562Z,26.73
2022-08-17T05:17:43.542Z,26.75
2022-08-17T05:18:43.512Z,26.77
2022-08-17T05:19:43.522Z,26.76
2022-08-17T05:20:43.504Z,26.73
2022-08-17T05:21:43.503Z,26.76
2022-08-17T05:22:43.506Z,26.75
2022-08-17T05:23:43.626Z,26.77
2022-08-17T05:24:53.586Z,26.77
2022-08-17T05:25:47.334Z,26.77
2022-08-17T05:26:43.444Z,26.77
2022-08-17T05:27:43.455Z,26.80
2022-08-17T05:28:43.426Z,26.76
2022-08-17T05:29:43.446Z,26.77
2022-08-17T05:30:43.435Z,26.77
2022-08-17T05:31:43.393Z,26.76
2022-08-17T05:32:43.403Z,26.72
2022-08-17T05:33:46.132Z,26.69
2022-08-17T05:34:43.395Z,26.57
2022-08-17T05:35:44.367Z,26.48
2022-08-17T05:36:44.593Z,26.36
2022-08-17T05:37:43.313Z,26.26
2022-08-17T05:38:43.316Z,26.15
2022-08-17T05:39:44.316Z,26.06
2022-08-17T05:40:43.356Z,25.94
2022-08-17T05:41:43.318Z,25.85
2022-08-17T05:42:43.392Z,25.75
2022-08-17T05:43:43.257Z,25.64
2022-08-17T05:44:43.246Z,25.54
2022-08-17T05:45:55.115Z,25.47
2022-08-17T05:46:44.256Z,25.39
2022-08-17T05:47:43.226Z,25.32
2022-08-17T05:48:43.267Z,25.25
2022-08-17T05:49:43.265Z,25.20
2022-08-17T05:50:43.855Z,25.14
2022-08-17T05:51:43.177Z,25.10
2022-08-17T05:52:43.232Z,25.06
2022-08-17T05:53:43.178Z,25.02
2022-08-17T05:54:43.187Z,24.99
2022-08-17T05:55:43.157Z,24.98
2022-08-17T05:56:43.136Z,24.93
2022-08-17T05:57:47.694Z,24.93
2022-08-17T05:58:44.107Z,24.87
2022-08-17T05:59:43.114Z,24.84
2022-08-17T06:00:43.276Z,24.81
2022-08-17T06:01:43.099Z,24.77
2022-08-17T06:02:47.501Z,24.73
2022-08-17T06:03:43.076Z,24.69
2022-08-17T06:04:43.073Z,24.68
2022-08-17T06:05:43.058Z,24.68
2022-08-17T06:06:43.076Z,24.68
2022-08-17T06:07:43.080Z,24.68
2022-08-17T06:08:43.050Z,24.71
2022-08-17T06:09:43.058Z,24.69
2022-08-17T06:10:42.999Z,24.71
2022-08-17T06:11:42.988Z,24.73
2022-08-17T06:12:43.023Z,24.76
2022-08-17T06:13:42.980Z,24.78
2022-08-17T06:14:42.948Z,24.78
2022-08-17T06:15:42.948Z,24.80
2022-08-17T06:16:42.919Z,24.81
2022-08-17T06:17:42.923Z,24.84
2022-08-17T06:18:42.965Z,24.87
2022-08-17T06:19:42.922Z,24.85
2022-08-17T06:20:42.892Z,24.88
2022-08-17T06:21:42.905Z,24.88
2022-08-17T06:22:42.956Z,24.90
2022-08-17T06:23:42.902Z,24.91
2022-08-17T06:24:42.871Z,24.93
2022-08-17T06:25:42.876Z,24.96
2022-08-17T06:26:43.546Z,24.96
2022-08-17T06:27:42.810Z,24.98
2022-08-17T06:28:42.851Z,24.99
2022-08-17T06:29:42.799Z,24.99
2022-08-17T06:30:59.995Z,25.00
2022-08-17T06:31:43.812Z,24.99
2022-08-17T06:32:42.844Z,24.99
2022-08-17T06:33:42.784Z,24.99
2022-08-17T06:34:42.760Z,24.99
2022-08-17T06:35:43.772Z,24.99
2022-08-17T06:36:42.752Z,25.00
2022-08-17T06:37:42.754Z,25.00
2022-08-17T06:38:42.713Z,25.02
2022-08-17T06:39:43.379Z,25.02
2022-08-17T06:40:42.743Z,25.02
2022-08-17T06:41:42.684Z,25.02
2022-08-17T06:43:02.779Z,25.02
2022-08-17T06:43:47.910Z,25.02
2022-08-17T06:44:51.024Z,25.03
2022-08-17T06:45:43.651Z,25.03
2022-08-17T06:46:42.650Z,25.05
2022-08-17T06:47:42.613Z,25.06
2022-08-17T06:48:42.627Z,25.08
2022-08-17T06:49:42.641Z,25.06
2022-08-17T06:50:42.612Z,25.08
2022-08-17T06:51:42.584Z,25.08
2022-08-17T06:52:46.465Z,25.08
2022-08-17T06:53:42.639Z,25.09
2022-08-17T06:54:42.603Z,25.09
2022-08-17T06:55:42.552Z,25.09
2022-08-17T06:56:53.693Z,25.09
2022-08-17T06:57:43.535Z,25.09
2022-08-17T06:58:42.511Z,25.10
2022-08-17T06:59:56.145Z,25.10
2022-08-17T07:00:43.581Z,25.13
2022-08-17T07:01:42.497Z,25.14
2022-08-17T07:02:53.244Z,25.14
2022-08-17T07:03:43.476Z,25.17
2022-08-17T07:04:42.464Z,25.17
2022-08-17T07:05:42.458Z,25.18
2022-08-17T07:06:42.492Z,25.21
2022-08-17T07:07:42.424Z,25.23
2022-08-17T07:08:42.424Z,25.24
2022-08-17T07:09:42.416Z,25.25
2022-08-17T07:10:42.427Z,25.25
2022-08-17T07:11:42.365Z,25.25
2022-08-17T07:12:42.445Z,25.28
2022-08-17T07:13:42.406Z,25.27
2022-08-17T07:14:42.354Z,25.30
2022-08-17T07:15:42.470Z,25.32
2022-08-17T07:16:42.332Z,25.30
2022-08-17T07:17:57.018Z,25.35
2022-08-17T07:18:43.330Z,25.32
2022-08-17T07:19:42.306Z,25.35
2022-08-17T07:20:42.317Z,25.38
2022-08-17T07:21:42.290Z,25.36
2022-08-17T07:22:57.569Z,25.38
2022-08-17T07:23:43.274Z,25.39
2022-08-17T07:24:42.279Z,25.42
2022-08-17T07:25:42.295Z,25.43
2022-08-17T07:26:42.237Z,25.45
2022-08-17T07:27:42.223Z,25.46
2022-08-17T07:28:42.215Z,25.46
2022-08-17T07:29:42.200Z,25.50
2022-08-17T07:30:45.702Z,25.47
2022-08-17T07:31:43.519Z,25.50
2022-08-17T07:32:42.166Z,25.51
2022-08-17T07:33:42.188Z,25.52
2022-08-17T07:34:42.159Z,25.55
2022-08-17T07:35:43.870Z,25.57
2022-08-17T07:36:42.138Z,25.58
2022-08-17T07:37:42.229Z,25.60
2022-08-17T07:38:42.129Z,25.60
2022-08-17T07:40:15.487Z,25.62
2022-08-17T07:40:44.090Z,25.64
2022-08-17T07:41:53.512Z,25.65
2022-08-17T07:42:45.142Z,25.69
2022-08-17T07:43:42.162Z,25.69
2022-08-17T07:44:42.057Z,25.72
2022-08-17T07:45:42.068Z,25.73
2022-08-17T07:46:42.047Z,25.73
2022-08-17T07:47:42.028Z,25.73
2022-08-17T07:48:42.037Z,25.77
2022-08-17T07:49:41.999Z,25.76
2022-08-17T07:50:41.980Z,25.79
2022-08-17T07:51:44.672Z,25.79
2022-08-17T07:52:50.948Z,25.79
2022-08-17T07:53:42.999Z,25.77
2022-08-17T07:54:41.978Z,25.80
2022-08-17T07:55:42.066Z,25.80
2022-08-17T07:56:41.948Z,25.79
2022-08-17T07:57:41.921Z,25.82
2022-08-17T07:58:41.910Z,25.85
2022-08-17T07:59:43.314Z,25.83
2022-08-17T08:00:41.899Z,25.85
2022-08-17T08:01:42.437Z,25.85
2022-08-17T08:02:41.905Z,25.87
2022-08-17T08:03:41.850Z,25.88
2022-08-17T08:05:50.194Z,25.88
2022-08-17T08:06:42.859Z,25.90
2022-08-17T08:08:38.538Z,25.95
2022-08-17T08:09:38.528Z,25.94
2022-08-17T08:10:38.486Z,25.97
2022-08-17T08:11:43.743Z,25.94
2022-08-17T08:12:39.478Z,25.95
2022-08-17T08:13:38.466Z,25.98
2022-08-17T08:14:38.447Z,26.01
2022-08-17T08:15:38.447Z,26.05
2022-08-17T08:16:39.458Z,26.06
2022-08-17T08:17:38.417Z,26.10
2022-08-17T08:18:39.651Z,26.12
2022-08-17T08:19:39.441Z,26.15
2022-08-17T08:20:53.081Z,26.18
2022-08-17T08:21:39.420Z,26.20
2022-08-17T08:22:38.367Z,26.20
2022-08-17T08:23:38.349Z,26.21
2022-08-17T08:24:38.388Z,26.25
2022-08-17T08:25:38.350Z,26.26
2022-08-17T08:26:38.349Z,26.26
2022-08-17T08:27:38.325Z,26.26
2022-08-17T08:28:38.340Z,26.29
2022-08-17T08:29:38.335Z,26.28
2022-08-17T08:30:38.301Z,26.29
2022-08-17T08:31:42.254Z,26.29
2022-08-17T08:32:38.283Z,26.32
2022-08-17T08:33:38.261Z,26.32
2022-08-17T08:34:54.777Z,26.32
2022-08-17T08:35:39.248Z,26.33
2022-08-17T08:37:15.767Z,26.35
2022-08-17T08:37:42.935Z,26.37
2022-08-17T08:38:39.210Z,26.39
2022-08-17T08:39:38.240Z,26.39
2022-08-17T08:40:38.205Z,26.40
2022-08-17T08:41:38.179Z,26.43
2022-08-17T08:42:38.233Z,26.40
2022-08-17T08:43:38.214Z,26.43
2022-08-17T08:45:00.296Z,26.40
2022-08-17T08:45:39.173Z,26.43
2022-08-17T08:46:38.132Z,26.45
2022-08-17T08:47:38.212Z,26.45
2022-08-17T08:48:53.282Z,26.48
2022-08-17T08:50:02.823Z,26.50
2022-08-17T08:50:39.139Z,26.51
2022-08-17T08:51:38.118Z,26.51
2022-08-17T08:52:38.090Z,26.52
2022-08-17T08:53:38.073Z,26.57
2022-08-17T08:54:38.062Z,26.57
2022-08-17T08:55:48.902Z,26.58
2022-08-17T08:56:38.055Z,26.58
2022-08-17T08:57:38.052Z,26.60
2022-08-17T08:58:41.910Z,26.60
2022-08-17T08:59:42.112Z,26.63
2022-08-17T09:00:39.013Z,26.63
2022-08-17T09:01:38.091Z,26.66
2022-08-17T09:02:37.993Z,26.67
2022-08-17T09:03:52.271Z,26.69
2022-08-17T09:05:12.485Z,26.72
2022-08-17T09:05:38.944Z,26.76
2022-08-17T09:06:39.254Z,26.80
2022-08-17T09:07:37.962Z,26.81
2022-08-17T09:08:37.902Z,26.85
2022-08-17T09:09:38.861Z,26.88
2022-08-17T09:10:37.892Z,26.89
2022-08-17T09:12:02.303Z,26.94
2022-08-17T09:12:38.941Z,26.99
2022-08-17T09:13:37.854Z,27.04
2022-08-17T09:14:46.450Z,27.07
2022-08-17T09:15:38.855Z,27.12
2022-08-17T09:16:38.820Z,27.19
2022-08-17T09:17:37.814Z,27.24
2022-08-17T09:18:59.820Z,27.31
2022-08-17T09:19:39.053Z,27.37
2022-08-17T09:20:37.794Z,27.41
2022-08-17T09:21:37.814Z,27.47
2022-08-17T09:22:38.803Z,27.57
2022-08-17T09:23:37.764Z,27.62
2022-08-17T09:24:37.749Z,27.67
2022-08-17T09:25:37.794Z,27.72
2022-08-17T09:26:37.721Z,27.77
2022-08-17T09:27:37.735Z,27.82
2022-08-17T09:28:37.727Z,27.85
2022-08-17T09:29:37.705Z,27.92
2022-08-17T09:30:37.727Z,27.94
2022-08-17T09:31:46.419Z,27.97
2022-08-17T09:32:38.655Z,27.97
2022-08-17T09:33:37.655Z,27.97
2022-08-17T09:34:37.995Z,27.99
2022-08-17T09:35:37.677Z,27.99
2022-08-17T09:36:38.025Z,28.00
2022-08-17T09:37:38.585Z,28.02
2022-08-17T09:38:37.686Z,28.06
2022-08-17T09:39:38.676Z,28.06
2022-08-17T09:40:37.640Z,28.09
2022-08-17T09:41:37.616Z,28.11
2022-08-17T09:42:37.606Z,28.14
2022-08-17T09:43:37.605Z,28.15
2022-08-17T09:44:37.558Z,28.17
2022-08-17T09:45:37.584Z,28.21
2022-08-17T09:46:39.022Z,28.22
2022-08-17T09:47:38.061Z,28.24
2022-08-17T09:48:37.532Z,28.29
2022-08-17T09:49:37.515Z,28.30
2022-08-17T09:51:03.408Z,28.30
2022-08-17T09:51:38.515Z,28.31
2022-08-17T09:52:37.477Z,28.31
2022-08-17T09:53:37.477Z,28.31
2022-08-17T09:54:39.665Z,28.33
2022-08-17T09:55:37.539Z,28.33
2022-08-17T09:56:45.366Z,28.33
2022-08-17T09:57:38.451Z,28.33
2022-08-17T09:58:37.421Z,28.34
2022-08-17T09:59:38.612Z,28.36
2022-08-17T10:00:37.390Z,28.37
2022-08-17T10:01:37.479Z,28.36
2022-08-17T10:02:37.378Z,28.37
2022-08-17T10:03:37.404Z,28.37
2022-08-17T10:04:37.338Z,28.39
2022-08-17T10:05:37.338Z,28.37
2022-08-17T10:06:37.605Z,28.37
2022-08-17T10:07:37.341Z,28.39
2022-08-17T10:08:37.328Z,28.39
2022-08-17T10:09:37.297Z,28.37
2022-08-17T10:10:37.291Z,28.40
2022-08-17T10:11:37.281Z,28.41
2022-08-17T10:12:38.335Z,28.43
2022-08-17T10:13:37.284Z,28.46
2022-08-17T10:14:44.400Z,28.49
2022-08-17T10:15:38.271Z,28.54
2022-08-17T10:16:37.272Z,28.56
2022-08-17T10:17:37.279Z,28.58
2022-08-17T10:18:37.240Z,28.64
2022-08-17T10:19:37.220Z,28.67
2022-08-17T10:20:37.222Z,28.68
2022-08-17T10:21:37.219Z,28.71
2022-08-17T10:22:38.141Z,28.74
2022-08-17T10:23:37.170Z,28.77
2022-08-17T10:24:37.224Z,28.83
2022-08-17T10:25:54.275Z,28.85
2022-08-17T10:26:40.363Z,28.86
2022-08-17T10:27:38.642Z,28.89
2022-08-17T10:28:37.102Z,28.89
2022-08-17T10:29:48.505Z,28.92
2022-08-17T10:30:38.173Z,28.93
2022-08-17T10:31:37.098Z,28.95
2022-08-17T10:32:37.076Z,28.95
2022-08-17T10:33:37.246Z,28.95
2022-08-17T10:34:41.141Z,28.96
2022-08-17T10:35:37.808Z,28.96
2022-08-17T10:36:37.092Z,28.95
2022-08-17T10:37:37.032Z,28.96
2022-08-17T10:38:37.014Z,28.93
2022-08-17T10:39:52.657Z,28.95
2022-08-17T10:40:37.988Z,28.93
2022-08-17T10:41:40.390Z,28.93
2022-08-17T10:42:37.005Z,28.92
2022-08-17T10:43:36.993Z,28.92
2022-08-17T10:44:40.664Z,28.92
2022-08-17T10:45:38.413Z,28.90
2022-08-17T10:46:36.924Z,28.92
2022-08-17T10:47:54.745Z,28.92
2022-08-17T10:48:37.947Z,28.90
2022-08-17T10:49:37.855Z,28.95
2022-08-17T10:50:36.873Z,28.93
2022-08-17T10:51:36.865Z,28.93
2022-08-17T10:52:36.860Z,28.93
2022-08-17T10:53:37.142Z,28.93
2022-08-17T10:54:37.092Z,28.95
2022-08-17T10:55:36.874Z,28.96
2022-08-17T10:56:36.837Z,28.98
2022-08-17T10:57:36.828Z,28.96
2022-08-17T10:58:36.835Z,28.96
2022-08-17T10:59:36.874Z,28.98
2022-08-17T11:00:36.907Z,28.96
2022-08-17T11:01:36.815Z,28.95
2022-08-17T11:02:36.778Z,28.96
2022-08-17T11:03:36.764Z,28.95
2022-08-17T11:04:36.777Z,28.93
2022-08-17T11:05:40.160Z,28.96
2022-08-17T11:06:37.723Z,28.96
2022-08-17T11:07:36.729Z,28.98
2022-08-17T11:08:36.719Z,29.00
2022-08-17T11:09:36.732Z,29.02
2022-08-17T11:10:36.708Z,29.04
2022-08-17T11:11:36.687Z,29.05
2022-08-17T11:12:36.698Z,29.05
2022-08-17T11:13:36.648Z,29.05
2022-08-17T11:14:36.758Z,29.04
2022-08-17T11:15:36.648Z,29.04
2022-08-17T11:16:36.630Z,29.05
2022-08-17T11:17:36.640Z,29.04
2022-08-17T11:18:36.629Z,29.02
2022-08-17T11:19:36.660Z,29.02
2022-08-17T11:20:36.588Z,29.02
2022-08-17T11:21:36.579Z,29.02
2022-08-17T11:22:36.579Z,29.02
2022-08-17T11:23:36.586Z,29.04
2022-08-17T11:24:36.542Z,29.05
2022-08-17T11:25:47.863Z,29.05
2022-08-17T11:26:36.521Z,29.06
2022-08-17T11:27:36.528Z,29.09
2022-08-17T11:28:36.538Z,29.08
2022-08-17T11:29:36.502Z,29.08
2022-08-17T11:30:36.671Z,29.11
2022-08-17T11:31:38.890Z,29.11
2022-08-17T11:32:36.500Z,29.11
2022-08-17T11:33:36.940Z,29.11
2022-08-17T11:34:36.438Z,29.12
2022-08-17T11:35:36.432Z,29.09
2022-08-17T11:36:36.548Z,29.11
2022-08-17T11:37:36.411Z,29.14
2022-08-17T11:38:36.431Z,29.15
2022-08-17T11:39:36.502Z,29.12
2022-08-17T11:40:36.381Z,29.12
2022-08-17T11:41:36.373Z,29.15
2022-08-17T11:42:36.367Z,29.15
2022-08-17T11:43:40.870Z,29.16
2022-08-17T11:44:37.354Z,29.16
2022-08-17T11:45:36.334Z,29.15
2022-08-17T11:46:36.311Z,29.15
2022-08-17T11:47:36.569Z,29.18
2022-08-17T11:48:36.369Z,29.18
2022-08-17T11:49:36.371Z,29.19
2022-08-17T11:50:36.282Z,29.19
2022-08-17T11:51:36.290Z,29.21
2022-08-17T11:52:36.265Z,29.21
2022-08-17T11:53:36.304Z,29.23
2022-08-17T11:54:36.243Z,29.21
2022-08-17T11:55:39.646Z,29.23
2022-08-17T11:56:37.236Z,29.23
2022-08-17T11:57:36.226Z,29.23
2022-08-17T11:58:36.212Z,29.24
2022-08-17T11:59:36.218Z,29.23
2022-08-17T12:00:36.183Z,29.23
2022-08-17T12:01:36.209Z,29.21
2022-08-17T12:02:36.172Z,29.19
2022-08-17T12:03:36.172Z,29.21
2022-08-17T12:04:36.198Z,29.19
2022-08-17T12:05:36.810Z,29.21
2022-08-17T12:06:36.112Z,29.19
2022-08-17T12:07:36.116Z,29.18
2022-08-17T12:08:36.734Z,29.18
2022-08-17T12:09:36.145Z,29.16
2022-08-17T12:10:36.085Z,29.18
2022-08-17T12:12:11.161Z,29.16
2022-08-17T12:12:37.077Z,29.15
2022-08-17T12:13:39.269Z,29.16
2022-08-17T12:15:05.853Z,29.15
2022-08-17T12:15:37.026Z,29.16
2022-08-17T12:16:36.016Z,29.14
2022-08-17T12:17:41.499Z,29.14
2022-08-17T12:18:36.994Z,29.12
2022-08-17T12:19:37.097Z,29.12
2022-08-17T12:20:36.928Z,29.11
2022-08-17T12:21:35.954Z,29.12
2022-08-17T12:22:35.955Z,29.11
2022-08-17T12:23:35.996Z,29.12
2022-08-17T12:24:35.984Z,29.09
2022-08-17T12:25:36.272Z,29.11
2022-08-17T12:26:35.947Z,29.11
2022-08-17T12:28:04.263Z,29.11
2022-08-17T12:28:36.909Z,29.09
2022-08-17T12:29:38.702Z,29.09
2022-08-17T12:30:35.920Z,29.09
2022-08-17T12:31:35.884Z,29.09
2022-08-17T12:32:35.869Z,29.11
2022-08-17T12:33:35.848Z,29.09
2022-08-17T12:34:36.068Z,29.14
2022-08-17T12:35:35.859Z,29.14
2022-08-17T12:36:35.849Z,29.14
2022-08-17T12:37:35.838Z,29.15
2022-08-17T12:38:35.819Z,29.15
2022-08-17T12:39:35.827Z,29.14
2022-08-17T12:40:35.819Z,29.15
2022-08-17T12:41:35.768Z,29.14
2022-08-17T12:42:37.059Z,29.16
2022-08-17T12:43:35.747Z,29.15
2022-08-17T12:44:35.746Z,29.16
2022-08-17T12:45:36.787Z,29.16
2022-08-17T12:46:35.732Z,29.16
2022-08-17T12:47:35.739Z,29.18
2022-08-17T12:48:35.718Z,29.18
2022-08-17T12:49:35.719Z,29.16
2022-08-17T12:50:35.721Z,29.16
2022-08-17T12:51:35.714Z,29.18
2022-08-17T12:52:37.379Z,29.16
2022-08-17T12:53:35.688Z,29.18
2022-08-17T12:54:35.640Z,29.19
2022-08-17T12:55:35.801Z,29.19